Etusivu
METAR-TAF:

METAR-TAF

Lentoasemat :

Sierra Blanca Regional Airport

Ruidoso, New Mexico, Yhdysvallat

Leveyspiiri: 33-28N, Pituuspiiri: 105-32W, korkeus merenpinnasta: 2076 m

Tämänhetkinen sää

Tämä raportti tehtiin 22 minuuttia sitten, kello 10.15 UTC
Tuuli 3 kn lännestä
Lämpötila 10°C
Kosteus 25%
Ilmanpaine 1022 hPa
Näkyvyys: 16.1 km
selkeää

METAR: KSRR 201015Z AUTO 26003KT 10SM CLR 10/M09 A3019 RMK AO2

Aika: 04:37 (10:37 UTC)


TAF: puuttuu

Säähavainnot ja -ennusteet yli 4000 lentoasemalta (METAR- ja TAF-raportit).

Käytössä olevat sääasemat on merkitty karttaan keltaisilla ja punaisilla pisteillä.

Aseta hiiri pisteen päälle nähdäksesi sääaseman nimen.

Klikkaa sitten nähdäksesi säähavainnot ja -ennusteet.

Kartan vaihtaminen: klikkaa mustalla rastilla varustettuja vihreitä pisteitä, niin voit zoomata sisään; viivalla varustettua vihreää pistettä, niin voit zoomata ulos tai vihreitä nuolia, niin pääset viereisille kartoille.


METAR-TAF: